Time;durP1;ratioP1;P1;durP2;ratioP2;P2;SDS_P1;SDS_P2;PMS_P1;PMS_P2;Temp;Humidity;BMP_temperature;BMP_pressure;BME280_temperature;BME280_humidity;BME280_pressure;Samples;Min_cycle;Max_cycle;Signal;HPM_P1;HPM_P2
2021/07/03 00:01:46;;;;;;;13.33;11.93;;;;;;;;;;5014663;28;20469;-58
2021/07/03 00:04:11;;;;;;;11.97;10.77;;;;;;;;;;5014284;28;20308;-58
2021/07/03 00:06:36;;;;;;;11.77;10.67;;;;;;;;;;5014667;28;20213;-58
2021/07/03 00:09:02;;;;;;;11.43;10.37;;;;;;;;;;5014151;28;20721;-58
2021/07/03 00:11:28;;;;;;;12.97;11.27;;;;;;;;;;5014703;28;20217;-58
2021/07/03 00:13:53;;;;;;;19.63;12.67;;;;;;;;;;5014644;28;20284;-57
2021/07/03 00:16:18;;;;;;;13.77;12.37;;;;;;;;;;5013135;28;20442;-58
2021/07/03 00:18:44;;;;;;;12.37;11.17;;;;;;;;;;5014510;28;20221;-58
2021/07/03 00:21:09;;;;;;;13.07;11.90;;;;;;;;;;5028121;28;20225;-59
2021/07/03 00:23:34;;;;;;;12.17;10.97;;;;;;;;;;5034060;28;20296;-58
2021/07/03 00:26:00;;;;;;;14.40;13.10;;;;;;;;;;5033699;28;20291;-58
2021/07/03 00:28:26;;;;;;;13.97;12.47;;;;;;;;;;5033965;28;20221;-58
2021/07/03 00:30:51;;;;;;;14.03;12.80;;;;;;;;;;5034047;28;20931;-58
2021/07/03 00:33:17;;;;;;;13.13;11.83;;;;;;;;;;5033746;28;20222;-58
2021/07/03 00:35:43;;;;;;;13.23;11.87;;;;;;;;;;5033004;28;20245;-58
2021/07/03 00:38:08;;;;;;;14.03;12.67;;;;;;;;;;5033511;28;21016;-58
2021/07/03 00:40:33;;;;;;;13.50;12.20;;;;;;;;;;5018873;28;20240;-59
2021/07/03 00:42:58;;;;;;;14.30;12.47;;;;;;;;;;5013737;28;20558;-59
2021/07/03 00:45:24;;;;;;;13.43;11.87;;;;;;;;;;5014208;28;20601;-57
2021/07/03 00:47:51;;;;;;;14.20;12.77;;;;;;;;;;5013967;28;20306;-59
2021/07/03 00:50:16;;;;;;;14.33;12.90;;;;;;;;;;5013624;28;20569;-59
2021/07/03 00:52:43;;;;;;;15.83;14.17;;;;;;;;;;5014068;28;20545;-58
2021/07/03 00:55:09;;;;;;;14.43;13.03;;;;;;;;;;5016078;28;20218;-58
2021/07/03 00:57:36;;;;;;;14.57;13.13;;;;;;;;;;5033633;28;20471;-58
2021/07/03 01:00:03;;;;;;;15.23;13.80;;;;;;;;;;5033118;28;20250;-58
2021/07/03 01:02:28;;;;;;;13.73;12.33;;;;;;;;;;5033641;28;20768;-58
2021/07/03 01:04:54;;;;;;;14.60;13.10;;;;;;;;;;5033508;28;20464;-58
2021/07/03 01:07:19;;;;;;;15.10;13.60;;;;;;;;;;5033431;28;20220;-58
2021/07/03 01:09:45;;;;;;;16.83;13.13;;;;;;;;;;5032845;28;20283;-58
2021/07/03 01:12:10;;;;;;;16.17;12.20;;;;;;;;;;5037071;28;20647;-59
2021/07/03 01:14:46;;;;;;;15.90;13.47;;;;;;;;;;5037619;28;20227;-59
2021/07/03 01:17:12;;;;;;;13.70;12.40;;;;;;;;;;5037081;28;20243;-59
2021/07/03 01:19:37;;;;;;;14.50;13.07;;;;;;;;;;5037057;28;20471;-59
2021/07/03 01:22:06;;;;;;;13.63;12.40;;;;;;;;;;5037096;28;20753;-59
2021/07/03 01:24:31;;;;;;;15.07;13.60;;;;;;;;;;5037562;28;20623;-58
2021/07/03 01:26:56;;;;;;;14.83;13.20;;;;;;;;;;5019762;28;20461;-58
2021/07/03 01:29:23;;;;;;;15.30;13.67;;;;;;;;;;5017100;28;20226;-58
2021/07/03 01:31:51;;;;;;;14.60;13.30;;;;;;;;;;5017440;28;20225;-58
2021/07/03 01:34:17;;;;;;;15.57;13.87;;;;;;;;;;5023382;28;20963;-58
2021/07/03 01:36:42;;;;;;;14.80;13.30;;;;;;;;;;5037189;28;20460;-58
2021/07/03 01:39:08;;;;;;;14.83;13.33;;;;;;;;;;5036550;28;20530;-58
2021/07/03 01:41:36;;;;;;;16.37;14.00;;;;;;;;;;5036936;28;20244;-58
2021/07/03 01:44:02;;;;;;;18.20;13.80;;;;;;;;;;5037054;28;20222;-58
2021/07/03 01:46:27;;;;;;;15.77;14.30;;;;;;;;;;5036710;28;20441;-58
2021/07/03 01:48:53;;;;;;;15.67;14.23;;;;;;;;;;5036937;28;20989;-58
2021/07/03 01:51:18;;;;;;;17.30;15.70;;;;;;;;;;5036426;28;20236;-57
2021/07/03 01:53:43;;;;;;;15.70;13.90;;;;;;;;;;5035747;28;20528;-58
2021/07/03 01:56:10;;;;;;;15.33;13.87;;;;;;;;;;5036334;28;20226;-58
2021/07/03 01:58:35;;;;;;;16.77;14.70;;;;;;;;;;5036658;28;20291;-57
2021/07/03 02:01:01;;;;;;;14.70;13.00;;;;;;;;;;5036495;28;20457;-58
2021/07/03 02:03:27;;;;;;;14.57;13.20;;;;;;;;;;5036271;28;20653;-58
2021/07/03 02:05:52;;;;;;;16.33;14.60;;;;;;;;;;5036742;28;20468;-57
2021/07/03 02:08:18;;;;;;;14.97;13.47;;;;;;;;;;5036178;28;20220;-58
2021/07/03 02:10:44;;;;;;;16.30;14.73;;;;;;;;;;5036366;28;20222;-58
2021/07/03 02:13:09;;;;;;;16.47;14.80;;;;;;;;;;5035176;28;20536;-58
2021/07/03 02:15:34;;;;;;;16.07;14.53;;;;;;;;;;5036501;28;20669;-58
2021/07/03 02:18:01;;;;;;;16.00;14.30;;;;;;;;;;5036556;28;20225;-58
2021/07/03 02:20:26;;;;;;;15.90;14.30;;;;;;;;;;5026959;28;20242;-57
2021/07/03 02:22:52;;;;;;;18.37;16.47;;;;;;;;;;4997898;28;20464;-57
2021/07/03 02:25:18;;;;;;;16.40;14.70;;;;;;;;;;5016096;28;20253;-58
2021/07/03 02:27:43;;;;;;;16.60;14.90;;;;;;;;;;5016287;28;20241;-58
2021/07/03 02:30:11;;;;;;;17.07;15.20;;;;;;;;;;5016019;28;20961;-58
2021/07/03 02:32:37;;;;;;;18.13;16.43;;;;;;;;;;5020496;28;20601;-58
2021/07/03 02:35:03;;;;;;;15.93;14.30;;;;;;;;;;5036320;28;20469;-58
2021/07/03 02:37:29;;;;;;;18.27;16.57;;;;;;;;;;5035739;28;20272;-58
2021/07/03 02:39:54;;;;;;;16.30;14.57;;;;;;;;;;5035741;28;20472;-57
2021/07/03 02:42:19;;;;;;;16.40;14.80;;;;;;;;;;5035293;28;20301;-58
2021/07/03 02:44:44;;;;;;;17.47;15.77;;;;;;;;;;5035867;28;20218;-58
2021/07/03 02:47:10;;;;;;;16.37;14.67;;;;;;;;;;5035499;28;20222;-58
2021/07/03 02:49:35;;;;;;;16.60;15.00;;;;;;;;;;5035589;28;20214;-58
2021/07/03 02:52:00;;;;;;;18.17;14.67;;;;;;;;;;5035857;28;20313;-59
2021/07/03 02:54:26;;;;;;;15.20;13.63;;;;;;;;;;5035256;28;20537;-58
2021/07/03 02:56:57;;;;;;;17.50;15.13;;;;;;;;;;5035750;28;20225;-59
2021/07/03 02:59:22;;;;;;;15.33;13.83;;;;;;;;;;5034286;28;20286;-59
2021/07/03 03:01:47;;;;;;;15.40;14.07;;;;;;;;;;5035593;28;20538;-58
2021/07/03 03:04:12;;;;;;;16.53;14.53;;;;;;;;;;5035137;28;20222;-59
2021/07/03 03:06:38;;;;;;;17.97;14.43;;;;;;;;;;5035455;28;20292;-59
2021/07/03 03:09:03;;;;;;;16.50;14.73;;;;;;;;;;5034375;28;20209;-58
2021/07/03 03:11:28;;;;;;;18.23;16.33;;;;;;;;;;5015059;28;20298;-58
2021/07/03 03:13:54;;;;;;;15.90;14.30;;;;;;;;;;5015521;28;20601;-58
2021/07/03 03:16:19;;;;;;;18.23;16.40;;;;;;;;;;5015091;28;20246;-58
2021/07/03 03:18:44;;;;;;;18.83;15.97;;;;;;;;;;5015441;28;20221;-58
2021/07/03 03:21:09;;;;;;;17.20;15.50;;;;;;;;;;5029219;28;20636;-59
2021/07/03 03:23:35;;;;;;;16.77;15.10;;;;;;;;;;5035167;28;20225;-59
2021/07/03 03:26:00;;;;;;;16.30;14.23;;;;;;;;;;5035197;28;20301;-59
2021/07/03 03:28:25;;;;;;;18.07;16.17;;;;;;;;;;5034620;28;20283;-57
2021/07/03 03:30:50;;;;;;;16.87;14.77;;;;;;;;;;5035033;28;20280;-58
2021/07/03 03:33:16;;;;;;;18.57;16.07;;;;;;;;;;5034238;28;20628;-59
2021/07/03 03:35:41;;;;;;;17.87;16.07;;;;;;;;;;5033786;28;20245;-59
2021/07/03 03:38:06;;;;;;;16.13;14.43;;;;;;;;;;5034826;28;20657;-59
2021/07/03 03:40:31;;;;;;;20.07;17.10;;;;;;;;;;5034256;28;20222;-58
2021/07/03 03:42:57;;;;;;;16.77;15.10;;;;;;;;;;5034742;28;20218;-58
2021/07/03 03:45:22;;;;;;;17.47;15.87;;;;;;;;;;5034384;28;20237;-58
2021/07/03 03:47:48;;;;;;;18.40;15.70;;;;;;;;;;5034788;28;20292;-58
2021/07/03 03:50:13;;;;;;;19.60;16.93;;;;;;;;;;5034452;28;20586;-59
2021/07/03 03:52:39;;;;;;;19.63;17.67;;;;;;;;;;5034684;28;20285;-57
2021/07/03 03:55:05;;;;;;;20.73;18.60;;;;;;;;;;5034595;28;20218;-58
2021/07/03 03:57:31;;;;;;;17.83;16.23;;;;;;;;;;5028170;28;20516;-59
2021/07/03 03:59:58;;;;;;;20.60;18.50;;;;;;;;;;5014683;28;20957;-59
2021/07/03 04:02:23;;;;;;;24.03;18.00;;;;;;;;;;5014258;28;20230;-59
2021/07/03 04:04:50;;;;;;;18.87;17.17;;;;;;;;;;5014824;28;20454;-59
2021/07/03 04:07:17;;;;;;;17.90;16.00;;;;;;;;;;5014294;28;20214;-58
2021/07/03 04:09:42;;;;;;;20.37;18.00;;;;;;;;;;5020870;28;20472;-59
2021/07/03 04:12:08;;;;;;;21.20;15.37;;;;;;;;;;5034285;28;20464;-58
2021/07/03 04:14:33;;;;;;;23.17;17.67;;;;;;;;;;5033009;28;20685;-57
2021/07/03 04:16:58;;;;;;;18.23;16.37;;;;;;;;;;5034164;28;20550;-59
2021/07/03 04:19:23;;;;;;;17.57;15.77;;;;;;;;;;5033637;28;20298;-58
2021/07/03 04:21:49;;;;;;;17.40;15.63;;;;;;;;;;5033794;28;20236;-59
2021/07/03 04:24:14;;;;;;;20.83;16.50;;;;;;;;;;5033880;28;20214;-58
2021/07/03 04:26:39;;;;;;;19.27;17.17;;;;;;;;;;5023380;28;20255;-58
2021/07/03 04:29:04;;;;;;;19.57;16.90;;;;;;;;;;5013234;28;20230;-59
2021/07/03 04:31:31;;;;;;;19.10;17.37;;;;;;;;;;5014021;28;20218;-57
2021/07/03 04:33:56;;;;;;;18.20;16.40;;;;;;;;;;5018096;28;20210;-58
2021/07/03 04:36:21;;;;;;;18.67;16.77;;;;;;;;;;5033582;28;20608;-59
2021/07/03 04:38:46;;;;;;;21.10;18.37;;;;;;;;;;5033948;28;20214;-58
2021/07/03 04:41:12;;;;;;;20.87;18.80;;;;;;;;;;5033680;28;20617;-58
2021/07/03 04:43:37;;;;;;;18.60;16.80;;;;;;;;;;5032355;28;20221;-59
2021/07/03 04:46:02;;;;;;;22.37;18.13;;;;;;;;;;5030791;28;20646;-58
2021/07/03 04:48:27;;;;;;;18.40;16.60;;;;;;;;;;5013771;28;20337;-56
2021/07/03 04:50:53;;;;;;;17.67;15.77;;;;;;;;;;5013637;28;20305;-58
2021/07/03 04:53:18;;;;;;;20.50;18.07;;;;;;;;;;5013461;28;20245;-59
2021/07/03 04:55:43;;;;;;;18.80;17.00;;;;;;;;;;5014062;28;20241;-59
2021/07/03 04:58:08;;;;;;;18.70;16.80;;;;;;;;;;5013919;28;20300;-58
2021/07/03 05:00:34;;;;;;;17.47;15.87;;;;;;;;;;5013454;28;20222;-59
2021/07/03 05:03:01;;;;;;;20.30;18.03;;;;;;;;;;5014094;28;20527;-59
2021/07/03 05:05:26;;;;;;;18.47;16.53;;;;;;;;;;5013610;28;20214;-58
2021/07/03 05:07:51;;;;;;;19.43;16.37;;;;;;;;;;5013341;28;20786;-58
2021/07/03 05:10:16;;;;;;;18.47;16.50;;;;;;;;;;5013359;28;20297;-58
2021/07/03 05:12:42;;;;;;;17.90;16.10;;;;;;;;;;5013719;28;20245;-58
2021/07/03 05:15:07;;;;;;;17.90;16.10;;;;;;;;;;5013977;28;20297;-58
2021/07/03 05:17:33;;;;;;;18.50;16.63;;;;;;;;;;5013592;28;20273;-58
2021/07/03 05:19:58;;;;;;;18.23;16.27;;;;;;;;;;5013301;28;20232;-58
2021/07/03 05:22:23;;;;;;;17.57;15.57;;;;;;;;;;5013490;28;20236;-57
2021/07/03 05:24:48;;;;;;;16.80;15.00;;;;;;;;;;5012862;28;20302;-59
2021/07/03 05:27:14;;;;;;;17.87;16.07;;;;;;;;;;5013645;28;20595;-59
2021/07/03 05:29:39;;;;;;;17.70;15.80;;;;;;;;;;5013223;28;20219;-59
2021/07/03 05:32:05;;;;;;;19.43;17.40;;;;;;;;;;5010446;28;20754;-58
2021/07/03 05:34:30;;;;;;;19.97;17.20;;;;;;;;;;5021189;28;20225;-58
2021/07/03 05:36:56;;;;;;;16.27;14.67;;;;;;;;;;5024036;28;20218;-59
2021/07/03 05:39:22;;;;;;;16.00;14.50;;;;;;;;;;5023365;28;20264;-58
2021/07/03 05:41:47;;;;;;;17.90;15.93;;;;;;;;;;5026592;28;20516;-59
2021/07/03 05:44:12;;;;;;;18.07;16.20;;;;;;;;;;5022561;28;20221;-59
2021/07/03 05:46:38;;;;;;;18.43;16.63;;;;;;;;;;5022670;28;20348;-59
2021/07/03 05:49:03;;;;;;;18.30;16.40;;;;;;;;;;5014876;28;20222;-59
2021/07/03 05:51:29;;;;;;;18.40;16.50;;;;;;;;;;5026211;28;20218;-58
2021/07/03 05:53:54;;;;;;;16.80;15.20;;;;;;;;;;5019852;28;20221;-58
2021/07/03 05:56:20;;;;;;;18.50;16.50;;;;;;;;;;5020283;28;20215;-58
2021/07/03 05:58:45;;;;;;;18.23;15.57;;;;;;;;;;5029323;28;20526;-58
2021/07/03 06:01:11;;;;;;;23.00;14.70;;;;;;;;;;5030083;28;20240;-58
2021/07/03 06:03:36;;;;;;;15.33;13.87;;;;;;;;;;5022375;28;20316;-58
2021/07/03 06:06:01;;;;;;;16.70;15.00;;;;;;;;;;5023034;28;20222;-57
2021/07/03 06:08:27;;;;;;;14.63;13.23;;;;;;;;;;5029416;28;20218;-58
2021/07/03 06:10:52;;;;;;;15.97;14.20;;;;;;;;;;5029758;28;20222;-58
2021/07/03 06:13:17;;;;;;;16.23;14.53;;;;;;;;;;5022892;28;20297;-59
2021/07/03 06:15:43;;;;;;;13.53;12.13;;;;;;;;;;5023204;28;20276;-58
2021/07/03 06:18:08;;;;;;;13.60;12.20;;;;;;;;;;5029525;28;20563;-58
2021/07/03 06:20:33;;;;;;;12.90;11.70;;;;;;;;;;5016398;28;20235;-58
2021/07/03 06:22:58;;;;;;;14.77;13.27;;;;;;;;;;5029662;28;20325;-58
2021/07/03 06:25:24;;;;;;;12.60;11.40;;;;;;;;;;5016841;28;20222;-59
2021/07/03 06:27:49;;;;;;;13.30;12.00;;;;;;;;;;5030817;28;20309;-58
2021/07/03 06:30:15;;;;;;;14.57;13.13;;;;;;;;;;5027151;28;20366;-58
2021/07/03 06:32:40;;;;;;;12.27;11.07;;;;;;;;;;5017828;28;20540;-58
2021/07/03 06:35:06;;;;;;;15.20;13.60;;;;;;;;;;5036025;28;20460;-58
2021/07/03 06:37:32;;;;;;;13.30;11.77;;;;;;;;;;5021066;28;20226;-58
2021/07/03 06:39:57;;;;;;;13.70;11.47;;;;;;;;;;5028003;28;20865;-59
2021/07/03 06:42:24;;;;;;;12.20;11.00;;;;;;;;;;5028955;28;20222;-57
2021/07/03 06:44:49;;;;;;;13.53;12.20;;;;;;;;;;5023179;28;20232;-57
2021/07/03 06:47:15;;;;;;;16.23;10.70;;;;;;;;;;5022503;28;20466;-58
2021/07/03 06:49:41;;;;;;;13.20;11.30;;;;;;;;;;5027751;28;20285;-59
2021/07/03 06:52:09;;;;;;;11.63;10.50;;;;;;;;;;5028839;28;20237;-59
2021/07/03 06:54:34;;;;;;;13.13;11.73;;;;;;;;;;5022585;28;20875;-58
2021/07/03 06:56:59;;;;;;;15.57;10.97;;;;;;;;;;5022179;28;20544;-59
2021/07/03 06:59:26;;;;;;;12.80;10.43;;;;;;;;;;5027854;28;20253;-59
2021/07/03 07:01:51;;;;;;;11.80;10.60;;;;;;;;;;5028873;28;20249;-57
2021/07/03 07:04:19;;;;;;;12.40;11.10;;;;;;;;;;5022610;28;20974;-58
2021/07/03 07:06:45;;;;;;;11.80;10.63;;;;;;;;;;5021282;28;20290;-59
2021/07/03 07:09:10;;;;;;;12.53;11.23;;;;;;;;;;5027269;28;20469;-59
2021/07/03 07:11:35;;;;;;;12.23;11.10;;;;;;;;;;5028289;28;20248;-58
2021/07/03 07:14:00;;;;;;;13.63;12.17;;;;;;;;;;5022303;28;20222;-58
2021/07/03 07:16:26;;;;;;;11.53;10.37;;;;;;;;;;5021367;28;20298;-58
2021/07/03 07:18:51;;;;;;;12.67;11.27;;;;;;;;;;5028385;28;20647;-58
2021/07/03 07:21:16;;;;;;;10.80;9.73;;;;;;;;;;5028090;28;20313;-58
2021/07/03 07:23:41;;;;;;;11.97;10.77;;;;;;;;;;5021505;28;20226;-58
2021/07/03 07:26:22;;;;;;;11.83;10.67;;;;;;;;;;5027949;28;20222;-59
2021/07/03 07:28:49;;;;;;;13.10;10.97;;;;;;;;;;5026381;28;20492;-59
2021/07/03 07:31:14;;;;;;;12.23;11.00;;;;;;;;;;5028256;28;20226;-59
2021/07/03 07:33:40;;;;;;;13.97;10.90;;;;;;;;;;5019279;28;20464;-58
2021/07/03 07:36:05;;;;;;;13.83;10.30;;;;;;;;;;5034957;28;20244;-57
2021/07/03 07:38:30;;;;;;;11.50;10.50;;;;;;;;;;5021004;28;20241;-58
2021/07/03 07:40:56;;;;;;;13.00;11.67;;;;;;;;;;5033794;28;20230;-57
2021/07/03 07:43:21;;;;;;;14.13;12.83;;;;;;;;;;5021485;28;20612;-58
2021/07/03 07:45:46;;;;;;;14.03;12.53;;;;;;;;;;5023296;28;20222;-58
2021/07/03 07:48:11;;;;;;;13.00;11.70;;;;;;;;;;5027921;28;20226;-57
2021/07/03 07:50:37;;;;;;;15.77;12.90;;;;;;;;;;5025126;28;20582;-58
2021/07/03 07:53:02;;;;;;;13.07;11.87;;;;;;;;;;5021206;28;20222;-58
2021/07/03 07:55:28;;;;;;;15.03;13.27;;;;;;;;;;5023264;28;20654;-57
2021/07/03 07:57:53;;;;;;;15.37;12.23;;;;;;;;;;5027759;28;20353;-58
2021/07/03 08:00:19;;;;;;;13.83;12.53;;;;;;;;;;5025017;28;20238;-58
2021/07/03 08:02:45;;;;;;;14.27;12.97;;;;;;;;;;5020577;28;20230;-58
2021/07/03 08:05:11;;;;;;;13.80;12.60;;;;;;;;;;5023542;28;20466;-58
2021/07/03 08:07:36;;;;;;;14.40;13.10;;;;;;;;;;5027093;28;20461;-58
2021/07/03 08:10:01;;;;;;;13.93;12.53;;;;;;;;;;5024996;28;20218;-58
2021/07/03 08:12:26;;;;;;;15.20;11.57;;;;;;;;;;5020383;28;20236;-58
2021/07/03 08:14:52;;;;;;;13.60;12.13;;;;;;;;;;5023681;28;20665;-58
2021/07/03 08:17:17;;;;;;;12.80;11.50;;;;;;;;;;5027663;28;20233;-57
2021/07/03 08:19:42;;;;;;;14.40;12.90;;;;;;;;;;5022672;28;20732;-58
2021/07/03 08:22:09;;;;;;;14.03;12.73;;;;;;;;;;5030431;28;20226;-59
2021/07/03 08:24:36;;;;;;;15.03;13.50;;;;;;;;;;5024053;28;20217;-56
2021/07/03 08:27:02;;;;;;;12.97;11.77;;;;;;;;;;5030413;28;20468;-58
2021/07/03 08:29:27;;;;;;;12.30;11.10;;;;;;;;;;5023474;28;20466;-58
2021/07/03 08:31:52;;;;;;;12.37;11.20;;;;;;;;;;5026009;28;20458;-57
2021/07/03 08:34:17;;;;;;;11.27;10.27;;;;;;;;;;5023871;28;20546;-58
2021/07/03 08:36:43;;;;;;;12.20;11.00;;;;;;;;;;5030298;28;20305;-58
2021/07/03 08:39:08;;;;;;;12.27;11.10;;;;;;;;;;5023614;28;20233;-59
2021/07/03 08:41:35;;;;;;;15.17;10.73;;;;;;;;;;5029476;28;20313;-58
2021/07/03 08:44:00;;;;;;;11.93;10.37;;;;;;;;;;5023728;28;20229;-58
2021/07/03 08:46:25;;;;;;;11.73;10.63;;;;;;;;;;5020586;28;20814;-58
2021/07/03 08:48:54;;;;;;;12.27;11.00;;;;;;;;;;5023716;28;20301;-58
2021/07/03 08:51:22;;;;;;;12.50;10.60;;;;;;;;;;5027314;28;20568;-58
2021/07/03 08:53:51;;;;;;;11.87;10.90;;;;;;;;;;5024038;28;20555;-58
2021/07/03 08:56:16;;;;;;;11.73;10.63;;;;;;;;;;5020406;28;20547;-58
2021/07/03 08:58:41;;;;;;;13.70;11.33;;;;;;;;;;5022661;28;20545;-59
2021/07/03 09:01:07;;;;;;;12.87;11.70;;;;;;;;;;5029061;28;20647;-59
2021/07/03 09:03:32;;;;;;;13.77;12.37;;;;;;;;;;5029219;28;20233;-59
2021/07/03 09:06:00;;;;;;;16.50;12.10;;;;;;;;;;5020205;28;20565;-59
2021/07/03 09:08:27;;;;;;;11.00;9.90;;;;;;;;;;5022894;28;20226;-59
2021/07/03 09:11:06;;;;;;;12.77;11.30;;;;;;;;;;5026291;28;20466;-58
2021/07/03 09:13:32;;;;;;;10.70;9.63;;;;;;;;;;5025718;28;20463;-58
2021/07/03 09:15:58;;;;;;;11.33;10.37;;;;;;;;;;5019048;28;20877;-63
2021/07/03 09:18:25;;;;;;;11.30;10.23;;;;;;;;;;5021326;28;20469;-64
2021/07/03 09:20:52;;;;;;;11.70;10.50;;;;;;;;;;5031622;28;20230;-64
2021/07/03 09:23:20;;;;;;;11.27;10.27;;;;;;;;;;5019769;28;20747;-64
2021/07/03 09:26:03;;;;;;;11.13;10.13;;;;;;;;;;5024969;28;20870;-64
2021/07/03 09:28:34;;;;;;;10.00;9.10;;;;;;;;;;5014851;28;20797;-62
2021/07/03 09:31:02;;;;;;;12.50;11.40;;;;;;;;;;5024757;28;20488;-64
2021/07/03 09:33:34;;;;;;;11.10;10.03;;;;;;;;;;5007510;28;20491;-64
2021/07/03 09:36:04;;;;;;;11.33;10.33;;;;;;;;;;5036095;28;21603;-63
2021/07/03 09:38:34;;;;;;;11.27;10.13;;;;;;;;;;5023671;28;20556;-64
2021/07/03 09:41:10;;;;;;;11.67;10.67;;;;;;;;;;5024188;28;20457;-63
2021/07/03 09:43:36;;;;;;;12.03;9.67;;;;;;;;;;5010439;28;20483;-63
2021/07/03 09:46:01;;;;;;;10.10;9.17;;;;;;;;;;5023420;28;20552;-63
2021/07/03 09:48:26;;;;;;;8.90;8.10;;;;;;;;;;5030038;28;20898;-64
2021/07/03 09:50:52;;;;;;;11.90;10.50;;;;;;;;;;5028296;28;20288;-63
2021/07/03 09:53:19;;;;;;;11.77;10.70;;;;;;;;;;5022504;28;20645;-64
2021/07/03 09:55:44;;;;;;;12.40;11.30;;;;;;;;;;5023451;28;20233;-63
2021/07/03 09:58:09;;;;;;;12.00;10.80;;;;;;;;;;5030159;28;20805;-64
2021/07/03 10:00:36;;;;;;;9.57;8.50;;;;;;;;;;5029434;28;20291;-63
2021/07/03 10:03:07;;;;;;;10.80;9.80;;;;;;;;;;5022824;28;20233;-64
2021/07/03 10:05:34;;;;;;;9.37;8.57;;;;;;;;;;5023320;28;20476;-64
2021/07/03 10:08:06;;;;;;;8.30;7.63;;;;;;;;;;5028021;28;20481;-64
2021/07/03 10:10:32;;;;;;;10.20;9.30;;;;;;;;;;5028728;28;20527;-64
2021/07/03 10:13:02;;;;;;;9.50;8.43;;;;;;;;;;5023279;28;22354;-64
2021/07/03 10:15:32;;;;;;;9.30;8.50;;;;;;;;;;5021946;28;20489;-63
2021/07/03 10:18:08;;;;;;;8.27;7.57;;;;;;;;;;5027032;28;20862;-63
2021/07/03 10:20:33;;;;;;;10.40;9.40;;;;;;;;;;5032638;28;20479;-63
2021/07/03 10:22:59;;;;;;;9.90;7.90;;;;;;;;;;5025951;28;20465;-63
2021/07/03 10:25:35;;;;;;;8.70;8.00;;;;;;;;;;5029631;28;20689;-64
2021/07/03 10:28:02;;;;;;;10.83;7.80;;;;;;;;;;5026788;28;20222;-64
2021/07/03 10:30:32;;;;;;;9.17;8.37;;;;;;;;;;5022538;28;20527;-65
2021/07/03 10:33:06;;;;;;;9.30;8.40;;;;;;;;;;5011147;28;20506;-64
2021/07/03 10:35:52;;;;;;;9.10;8.30;;;;;;;;;;5033104;28;20472;-64
2021/07/03 10:38:28;;;;;;;7.73;6.93;;;;;;;;;;5022517;28;20465;-64
2021/07/03 10:41:14;;;;;;;8.60;7.73;;;;;;;;;;5026439;28;20450;-64
2021/07/03 10:43:43;;;;;;;9.80;8.47;;;;;;;;;;5008244;28;20946;-64
2021/07/03 10:46:09;;;;;;;9.53;8.63;;;;;;;;;;5021709;28;20465;-64
2021/07/03 10:48:34;;;;;;;9.13;8.23;;;;;;;;;;5028150;28;20846;-62
2021/07/03 10:51:11;;;;;;;9.23;8.43;;;;;;;;;;5029139;28;20230;-64
2021/07/03 10:53:36;;;;;;;9.07;8.17;;;;;;;;;;5023657;28;20312;-62
2021/07/03 10:56:13;;;;;;;11.83;8.83;;;;;;;;;;5021886;28;20556;-63
2021/07/03 10:58:39;;;;;;;8.63;7.90;;;;;;;;;;5025531;28;20664;-63
2021/07/03 11:01:08;;;;;;;9.43;7.80;;;;;;;;;;5028829;28;20484;-64
2021/07/03 11:03:42;;;;;;;8.93;8.07;;;;;;;;;;5025287;28;20469;-63
2021/07/03 11:06:18;;;;;;;7.90;7.23;;;;;;;;;;5022051;28;20484;-64
2021/07/03 11:08:44;;;;;;;9.90;9.00;;;;;;;;;;5022603;28;20519;-63
2021/07/03 11:11:15;;;;;;;8.70;7.93;;;;;;;;;;5027548;28;20473;-64
2021/07/03 11:13:42;;;;;;;9.07;8.37;;;;;;;;;;5027566;28;20465;-64
2021/07/03 11:16:09;;;;;;;9.83;8.43;;;;;;;;;;5020319;28;20592;-64
2021/07/03 11:18:38;;;;;;;7.50;6.90;;;;;;;;;;5029551;28;20531;-63
2021/07/03 11:21:08;;;;;;;9.37;7.10;;;;;;;;;;5021183;28;20464;-64
2021/07/03 11:23:35;;;;;;;7.37;6.63;;;;;;;;;;5021226;28;20936;-63
2021/07/03 11:26:00;;;;;;;8.53;7.70;;;;;;;;;;5028327;28;20473;-64
2021/07/03 11:28:27;;;;;;;7.83;7.10;;;;;;;;;;5028514;28;20472;-64
2021/07/03 11:31:03;;;;;;;7.40;6.13;;;;;;;;;;5021164;28;20225;-64
2021/07/03 11:33:29;;;;;;;8.20;7.50;;;;;;;;;;5008149;28;20483;-65
2021/07/03 11:35:54;;;;;;;8.70;7.87;;;;;;;;;;5034593;28;20547;-63
2021/07/03 11:38:23;;;;;;;8.90;7.10;;;;;;;;;;5021400;28;20944;-64
2021/07/03 11:40:54;;;;;;;7.57;6.87;;;;;;;;;;5033959;28;20265;-63
2021/07/03 11:43:20;;;;;;;8.87;7.93;;;;;;;;;;5030499;28;20472;-65
2021/07/03 11:45:45;;;;;;;6.97;6.40;;;;;;;;;;5025117;28;20475;-64
2021/07/03 11:48:11;;;;;;;7.97;7.10;;;;;;;;;;5021238;28;20804;-64
2021/07/03 11:50:43;;;;;;;6.97;6.03;;;;;;;;;;5023778;28;20562;-64
2021/07/03 11:53:11;;;;;;;8.00;6.50;;;;;;;;;;5028088;28;20470;-64
2021/07/03 11:55:59;;;;;;;8.43;7.53;;;;;;;;;;5025644;28;20464;-64
2021/07/03 11:58:26;;;;;;;8.60;7.20;;;;;;;;;;5010238;28;20473;-64
2021/07/03 12:00:53;;;;;;;7.23;6.53;;;;;;;;;;5019642;28;20500;-65
2021/07/03 12:03:23;;;;;;;7.97;7.37;;;;;;;;;;5025421;28;20809;-65
2021/07/03 12:05:53;;;;;;;6.10;5.50;;;;;;;;;;5027546;28;20936;-64
2021/07/03 12:08:19;;;;;;;7.30;6.60;;;;;;;;;;5023532;28;20464;-65
2021/07/03 12:10:48;;;;;;;8.07;6.20;;;;;;;;;;5019259;28;20540;-65
2021/07/03 12:13:22;;;;;;;7.87;7.27;;;;;;;;;;5024690;28;20238;-64
2021/07/03 12:15:49;;;;;;;7.30;6.70;;;;;;;;;;5027104;28;20476;-63
2021/07/03 12:18:25;;;;;;;6.90;6.30;;;;;;;;;;5029693;28;20806;-64
2021/07/03 12:21:09;;;;;;;8.27;7.37;;;;;;;;;;5018778;28;20508;-64
2021/07/03 12:23:35;;;;;;;7.83;7.13;;;;;;;;;;5020626;28;20520;-64
2021/07/03 12:26:03;;;;;;;7.17;6.47;;;;;;;;;;5024872;28;20468;-64
2021/07/03 12:28:28;;;;;;;7.60;6.93;;;;;;;;;;5027465;28;20465;-65
2021/07/03 12:31:03;;;;;;;6.63;6.00;;;;;;;;;;5021898;28;20952;-64
2021/07/03 12:33:29;;;;;;;7.00;6.43;;;;;;;;;;5007200;28;20222;-64
2021/07/03 12:35:54;;;;;;;7.67;6.50;;;;;;;;;;5033362;28;20816;-64
2021/07/03 12:38:24;;;;;;;7.40;6.50;;;;;;;;;;5020532;28;20316;-64
2021/07/03 12:40:49;;;;;;;6.77;6.27;;;;;;;;;;5023248;28;20227;-63
2021/07/03 12:43:15;;;;;;;7.13;6.37;;;;;;;;;;5027126;28;20492;-64
2021/07/03 12:45:41;;;;;;;7.70;7.10;;;;;;;;;;5024009;28;20222;-64
2021/07/03 12:48:09;;;;;;;7.43;6.73;;;;;;;;;;5020497;28;20218;-64
2021/07/03 12:50:34;;;;;;;7.40;6.70;;;;;;;;;;5023041;28;20461;-65
2021/07/03 12:53:08;;;;;;;6.97;6.37;;;;;;;;;;5021754;28;20530;-58
2021/07/03 12:55:36;;;;;;;7.40;6.63;;;;;;;;;;5022237;28;20230;-58
2021/07/03 12:58:02;;;;;;;7.00;6.40;;;;;;;;;;5026556;28;20468;-64
2021/07/03 13:00:27;;;;;;;7.20;6.60;;;;;;;;;;5025108;28;20465;-64
2021/07/03 13:02:52;;;;;;;6.20;5.60;;;;;;;;;;5019583;28;20608;-63
2021/07/03 13:05:22;;;;;;;7.10;6.00;;;;;;;;;;5022141;28;20233;-64
2021/07/03 13:07:47;;;;;;;6.27;5.73;;;;;;;;;;5030186;28;20219;-62
2021/07/03 13:10:14;;;;;;;6.80;5.10;;;;;;;;;;5029095;28;20464;-65
2021/07/03 13:12:39;;;;;;;6.33;5.83;;;;;;;;;;5019886;28;20301;-63
2021/07/03 13:15:05;;;;;;;7.40;5.90;;;;;;;;;;5019291;28;20540;-65
2021/07/03 13:17:30;;;;;;;5.93;5.40;;;;;;;;;;5019576;28;20213;-64
2021/07/03 13:19:55;;;;;;;5.40;5.00;;;;;;;;;;5028033;28;20229;-66
2021/07/03 13:22:21;;;;;;;6.13;5.53;;;;;;;;;;5033293;28;20229;-65
2021/07/03 13:24:46;;;;;;;5.50;5.00;;;;;;;;;;5027858;28;20252;-65
2021/07/03 13:27:11;;;;;;;6.70;6.10;;;;;;;;;;5023793;28;20225;-65
2021/07/03 13:29:37;;;;;;;6.20;5.70;;;;;;;;;;5026847;28;20285;-64
2021/07/03 13:32:02;;;;;;;5.90;5.43;;;;;;;;;;5024595;28;20560;-65
2021/07/03 13:34:28;;;;;;;5.53;5.03;;;;;;;;;;5020676;28;20239;-64
2021/07/03 13:36:53;;;;;;;5.63;5.17;;;;;;;;;;5032335;28;20219;-65
2021/07/03 13:39:19;;;;;;;5.40;4.90;;;;;;;;;;5028656;28;20226;-65
2021/07/03 13:41:44;;;;;;;4.83;4.43;;;;;;;;;;5035771;28;20225;-66
2021/07/03 13:44:09;;;;;;;5.40;5.00;;;;;;;;;;5026576;28;20233;-67
2021/07/03 13:46:34;;;;;;;5.43;5.03;;;;;;;;;;5030513;28;20293;-64
2021/07/03 13:49:00;;;;;;;4.90;4.40;;;;;;;;;;5027429;28;20222;-65
2021/07/03 13:51:25;;;;;;;6.50;6.00;;;;;;;;;;5020581;28;20219;-65
2021/07/03 13:53:50;;;;;;;8.30;7.57;;;;;;;;;;5028654;28;20279;-67
2021/07/03 13:56:15;;;;;;;58.70;53.33;;;;;;;;;;5023479;28;20297;-65
2021/07/03 13:58:41;;;;;;;24.10;21.90;;;;;;;;;;5027133;28;20253;-63
2021/07/03 14:01:08;;;;;;;33.30;30.50;;;;;;;;;;5029923;28;20221;-64
2021/07/03 14:03:33;;;;;;;12.70;11.60;;;;;;;;;;5026599;28;20275;-65
2021/07/03 14:05:59;;;;;;;6.00;5.50;;;;;;;;;;5022699;28;20473;-65
2021/07/03 14:08:25;;;;;;;15.90;14.50;;;;;;;;;;5027724;28;20226;-65
2021/07/03 14:10:50;;;;;;;16.63;15.17;;;;;;;;;;5029080;28;20316;-65
2021/07/03 14:13:15;;;;;;;21.80;19.90;;;;;;;;;;5024906;28;20213;-65
2021/07/03 14:15:40;;;;;;;8.50;7.70;;;;;;;;;;5021788;28;20637;-64
2021/07/03 14:18:06;;;;;;;16.70;15.13;;;;;;;;;;5027916;28;20214;-65
2021/07/03 14:20:32;;;;;;;15.63;14.03;;;;;;;;;;5029563;28;20547;-65